Time;durP1;ratioP1;P1;durP2;ratioP2;P2;SDS_P1;SDS_P2;PMS_P1;PMS_P2;Temp;Humidity;BMP_temperature;BMP_pressure;BME280_temperature;BME280_humidity;BME280_pressure;Samples;Min_cycle;Max_cycle;Signal;HPM_P1;HPM_P2
2023/04/30 00:01:29;;;;;;;3.70;2.92;;;;;;;;;;4991920;28;20046;-83
2023/04/30 00:03:57;;;;;;;3.10;2.80;;;;;;;;;;4992553;28;20043;-83
2023/04/30 00:06:25;;;;;;;4.55;3.10;;;;;;;;;;4990871;28;20508;-84
2023/04/30 00:08:55;;;;;;;4.40;2.60;;;;;;;;;;4985073;28;20054;-84
2023/04/30 00:11:22;;;;;;;3.25;2.95;;;;;;;;;;4987576;28;20688;-84
2023/04/30 00:13:50;;;;;;;5.22;2.88;;;;;;;;;;4983658;28;20119;-84
2023/04/30 00:16:18;;;;;;;3.83;2.80;;;;;;;;;;4995934;28;20062;-84
2023/04/30 00:18:45;;;;;;;3.10;2.88;;;;;;;;;;4992971;28;20096;-84
2023/04/30 00:21:13;;;;;;;4.25;3.00;;;;;;;;;;4993055;28;20042;-84
2023/04/30 00:23:40;;;;;;;2.90;2.70;;;;;;;;;;4988818;28;20050;-84
2023/04/30 00:26:07;;;;;;;2.90;2.70;;;;;;;;;;4991030;28;20054;-84
2023/04/30 00:28:36;;;;;;;4.80;2.88;;;;;;;;;;4986036;28;20046;-84
2023/04/30 00:31:05;;;;;;;3.92;2.85;;;;;;;;;;4985546;28;20417;-84
2023/04/30 00:33:33;;;;;;;8.15;3.10;;;;;;;;;;4987952;28;20046;-84
2023/04/30 00:36:00;;;;;;;4.53;2.88;;;;;;;;;;4987705;28;20500;-84
2023/04/30 00:38:27;;;;;;;5.13;3.15;;;;;;;;;;4981881;28;20089;-84
2023/04/30 00:40:55;;;;;;;3.67;3.28;;;;;;;;;;4997860;28;20042;-84
2023/04/30 00:43:22;;;;;;;4.22;3.30;;;;;;;;;;4985456;28;20046;-84
2023/04/30 00:45:49;;;;;;;3.67;2.80;;;;;;;;;;4989317;28;20046;-84
2023/04/30 00:48:17;;;;;;;3.58;3.33;;;;;;;;;;4987093;28;20440;-84
2023/04/30 00:50:44;;;;;;;5.97;3.22;;;;;;;;;;4987938;28;20112;-84
2023/04/30 00:53:12;;;;;;;3.10;2.83;;;;;;;;;;4986070;28;20064;-84
2023/04/30 00:55:40;;;;;;;5.63;3.17;;;;;;;;;;4986940;28;20074;-84
2023/04/30 00:58:08;;;;;;;3.35;3.15;;;;;;;;;;4987438;28;20050;-84
2023/04/30 01:00:35;;;;;;;3.88;2.95;;;;;;;;;;4987226;28;20081;-84
2023/04/30 01:03:02;;;;;;;3.20;3.00;;;;;;;;;;4986109;28;20093;-84
2023/04/30 01:05:30;;;;;;;2.97;2.78;;;;;;;;;;4987511;28;20085;-84
2023/04/30 01:07:57;;;;;;;3.03;2.60;;;;;;;;;;4985332;28;20050;-84
2023/04/30 01:10:29;;;;;;;3.50;3.10;;;;;;;;;;4985903;28;20685;-84
2023/04/30 01:13:06;;;;;;;3.20;2.90;;;;;;;;;;4987060;28;20054;-84
2023/04/30 01:15:33;;;;;;;3.75;2.53;;;;;;;;;;4987982;28;20050;-84
2023/04/30 01:18:07;;;;;;;3.10;2.90;;;;;;;;;;4987088;28;20408;-84
2023/04/30 01:20:36;;;;;;;3.28;2.95;;;;;;;;;;4984690;28;20041;-84
2023/04/30 01:23:11;;;;;;;3.20;2.92;;;;;;;;;;4983994;28;20042;-84
2023/04/30 01:25:38;;;;;;;2.63;2.53;;;;;;;;;;4983048;28;20069;-83
2023/04/30 01:28:13;;;;;;;2.85;2.65;;;;;;;;;;4986654;28;20134;-84
2023/04/30 01:30:43;;;;;;;4.28;2.80;;;;;;;;;;4985985;28;20046;-84
2023/04/30 01:33:11;;;;;;;3.08;2.88;;;;;;;;;;4986570;28;20058;-84
2023/04/30 01:35:57;;;;;;;3.20;2.88;;;;;;;;;;4984884;28;20050;-84
2023/04/30 01:38:32;;;;;;;3.13;2.90;;;;;;;;;;4984193;28;20046;-84
2023/04/30 01:41:00;;;;;;;3.20;2.97;;;;;;;;;;4986711;28;20048;-84
2023/04/30 01:43:36;;;;;;;3.30;3.08;;;;;;;;;;4985846;28;20492;-83
2023/04/30 01:46:04;;;;;;;3.00;2.80;;;;;;;;;;4987685;28;20042;-83
2023/04/30 01:48:44;;;;;;;4.45;3.30;;;;;;;;;;4969686;28;20137;-84
2023/04/30 01:51:50;;;;;;;3.28;3.03;;;;;;;;;;4986402;28;20440;-84
2023/04/30 01:54:25;;;;;;;2.83;2.70;;;;;;;;;;4978226;28;20070;-83
2023/04/30 01:56:55;;;;;;;4.38;3.03;;;;;;;;;;4976194;28;20062;-84
2023/04/30 01:59:22;;;;;;;3.13;2.80;;;;;;;;;;4968650;28;20416;-83
2023/04/30 02:01:50;;;;;;;3.30;3.00;;;;;;;;;;4983330;28;20042;-84
2023/04/30 02:04:18;;;;;;;3.10;2.90;;;;;;;;;;4985272;28;20138;-83
2023/04/30 02:06:45;;;;;;;3.20;3.00;;;;;;;;;;4987567;28;20101;-83
2023/04/30 02:09:13;;;;;;;3.05;2.75;;;;;;;;;;4983168;28;20049;-84
2023/04/30 02:11:40;;;;;;;2.92;2.78;;;;;;;;;;4986992;28;20077;-84
2023/04/30 02:14:08;;;;;;;3.15;2.95;;;;;;;;;;4990619;28;20046;-84
2023/04/30 02:16:36;;;;;;;3.53;3.22;;;;;;;;;;4990639;28;20048;-83
2023/04/30 02:19:03;;;;;;;6.70;3.30;;;;;;;;;;4992561;28;20049;-83
2023/04/30 02:21:31;;;;;;;7.93;3.45;;;;;;;;;;4973715;28;20042;-84
2023/04/30 02:23:58;;;;;;;3.42;3.22;;;;;;;;;;4997544;28;20077;-83
2023/04/30 02:26:25;;;;;;;3.95;3.10;;;;;;;;;;4989653;28;20042;-84
2023/04/30 02:28:53;;;;;;;2.92;2.72;;;;;;;;;;4988044;28;20061;-83
2023/04/30 02:31:20;;;;;;;3.08;2.78;;;;;;;;;;4990446;28;20051;-84
2023/04/30 02:33:47;;;;;;;6.00;2.92;;;;;;;;;;4988832;28;20416;-84
2023/04/30 02:36:15;;;;;;;3.20;3.00;;;;;;;;;;4989617;28;20052;-84
2023/04/30 02:38:42;;;;;;;3.10;2.90;;;;;;;;;;4989447;28;20129;-84
2023/04/30 02:41:09;;;;;;;4.68;3.15;;;;;;;;;;4988829;28;20054;-84
2023/04/30 02:43:37;;;;;;;3.13;2.80;;;;;;;;;;4989791;28;20042;-84
2023/04/30 02:46:05;;;;;;;3.17;2.97;;;;;;;;;;4991006;28;20074;-83
2023/04/30 02:48:32;;;;;;;3.10;2.90;;;;;;;;;;4988148;28;20049;-84
2023/04/30 02:50:59;;;;;;;2.90;2.70;;;;;;;;;;4988692;28;20046;-84
2023/04/30 02:53:27;;;;;;;5.47;2.88;;;;;;;;;;4971767;28;20142;-84
2023/04/30 02:55:55;;;;;;;4.18;3.30;;;;;;;;;;4986701;28;20478;-84
2023/04/30 02:58:22;;;;;;;3.60;3.30;;;;;;;;;;4985394;28;20050;-84
2023/04/30 03:00:49;;;;;;;3.40;3.20;;;;;;;;;;4986438;28;20113;-84
2023/04/30 03:03:17;;;;;;;2.90;2.70;;;;;;;;;;4987533;28;20042;-84
2023/04/30 03:05:44;;;;;;;3.13;2.92;;;;;;;;;;4969787;28;20140;-84
2023/04/30 03:08:12;;;;;;;3.15;2.95;;;;;;;;;;4987183;28;20046;-84
2023/04/30 03:10:40;;;;;;;4.95;2.90;;;;;;;;;;4985192;28;20112;-84
2023/04/30 03:13:07;;;;;;;3.05;2.85;;;;;;;;;;4989489;28;20058;-84
2023/04/30 03:15:34;;;;;;;3.15;2.95;;;;;;;;;;4991318;28;20046;-84
2023/04/30 03:18:02;;;;;;;6.22;3.35;;;;;;;;;;4992475;28;20054;-84
2023/04/30 03:20:30;;;;;;;3.28;3.00;;;;;;;;;;4969109;28;20404;-84
2023/04/30 03:22:57;;;;;;;3.58;2.95;;;;;;;;;;4987895;28;20133;-84
2023/04/30 03:25:25;;;;;;;4.53;2.90;;;;;;;;;;4987425;28;22005;-84
2023/04/30 03:27:52;;;;;;;3.28;3.08;;;;;;;;;;4987586;28;20531;-84
2023/04/30 03:30:19;;;;;;;3.00;2.80;;;;;;;;;;4986588;28;20097;-84
2023/04/30 03:32:47;;;;;;;3.20;2.83;;;;;;;;;;4969825;28;20132;-83
2023/04/30 03:35:15;;;;;;;3.20;2.90;;;;;;;;;;4985933;28;20046;-84
2023/04/30 03:37:42;;;;;;;3.15;2.95;;;;;;;;;;4989466;28;20428;-84
2023/04/30 03:40:10;;;;;;;2.97;2.78;;;;;;;;;;4986694;28;20108;-84
2023/04/30 03:42:38;;;;;;;3.40;3.20;;;;;;;;;;4987728;28;20423;-84
2023/04/30 03:45:05;;;;;;;3.33;2.97;;;;;;;;;;4987114;28;20104;-84
2023/04/30 03:47:33;;;;;;;3.40;2.90;;;;;;;;;;4985622;28;20274;-84
2023/04/30 03:50:02;;;;;;;3.33;3.13;;;;;;;;;;4987596;28;20040;-84
2023/04/30 03:52:30;;;;;;;3.33;3.00;;;;;;;;;;4995600;28;20121;-83
2023/04/30 03:54:57;;;;;;;3.95;3.25;;;;;;;;;;4986023;28;20507;-84
2023/04/30 03:57:25;;;;;;;3.20;3.00;;;;;;;;;;4988604;28;21092;-84
2023/04/30 03:59:52;;;;;;;3.10;2.90;;;;;;;;;;4983852;28;20449;-84
2023/04/30 04:02:20;;;;;;;3.33;3.03;;;;;;;;;;4987055;28;20134;-83
2023/04/30 04:04:48;;;;;;;3.85;3.00;;;;;;;;;;4984340;28;20042;-83
2023/04/30 04:07:16;;;;;;;3.22;3.03;;;;;;;;;;4986588;28;20868;-84
2023/04/30 04:09:44;;;;;;;3.80;2.88;;;;;;;;;;4986054;28;20137;-84
2023/04/30 04:12:11;;;;;;;3.20;2.90;;;;;;;;;;4988142;28;20069;-84
2023/04/30 04:14:38;;;;;;;3.38;3.08;;;;;;;;;;4985493;28;20054;-84
2023/04/30 04:17:06;;;;;;;4.95;2.95;;;;;;;;;;4985816;28;20054;-84
2023/04/30 04:19:33;;;;;;;3.63;3.33;;;;;;;;;;4983595;28;20046;-84
2023/04/30 04:22:01;;;;;;;4.88;3.20;;;;;;;;;;4989964;28;20054;-84
2023/04/30 04:24:29;;;;;;;5.20;3.33;;;;;;;;;;4986806;28;20519;-84
2023/04/30 04:26:56;;;;;;;3.28;3.08;;;;;;;;;;4982989;28;20042;-84
2023/04/30 04:29:24;;;;;;;2.97;2.78;;;;;;;;;;4987480;28;20050;-84
2023/04/30 04:31:51;;;;;;;4.40;2.90;;;;;;;;;;4980923;28;20984;-84
2023/04/30 04:34:19;;;;;;;4.28;3.17;;;;;;;;;;4985766;28;20054;-84
2023/04/30 04:36:46;;;;;;;3.75;3.10;;;;;;;;;;4981890;28;20106;-84
2023/04/30 04:39:14;;;;;;;3.38;3.13;;;;;;;;;;4986022;28;20050;-84
2023/04/30 04:41:41;;;;;;;3.53;3.17;;;;;;;;;;4986625;28;20093;-84
2023/04/30 04:44:09;;;;;;;4.07;3.50;;;;;;;;;;4970199;28;20056;-84
2023/04/30 04:46:41;;;;;;;3.53;3.22;;;;;;;;;;4967432;28;20054;-84
2023/04/30 04:49:08;;;;;;;3.53;3.33;;;;;;;;;;4982859;28;20051;-84
2023/04/30 04:51:35;;;;;;;5.00;3.42;;;;;;;;;;4987374;28;20046;-84
2023/04/30 04:54:03;;;;;;;3.30;3.00;;;;;;;;;;4987211;28;20126;-84
2023/04/30 04:56:30;;;;;;;3.53;3.22;;;;;;;;;;4985112;28;20049;-84
2023/04/30 04:58:58;;;;;;;3.58;3.38;;;;;;;;;;4984237;28;20050;-84
2023/04/30 05:01:25;;;;;;;3.95;3.25;;;;;;;;;;4983600;28;20692;-84
2023/04/30 05:03:53;;;;;;;3.58;3.30;;;;;;;;;;4964760;28;20069;-84
2023/04/30 05:06:21;;;;;;;3.30;3.13;;;;;;;;;;4987817;28;20050;-84
2023/04/30 05:08:49;;;;;;;3.30;3.10;;;;;;;;;;4984792;28;20046;-83
2023/04/30 05:11:16;;;;;;;5.35;3.05;;;;;;;;;;4984689;28;20065;-84
2023/04/30 05:13:44;;;;;;;3.38;3.13;;;;;;;;;;4984944;28;20042;-84
2023/04/30 05:16:11;;;;;;;3.53;3.22;;;;;;;;;;4985824;28;20097;-84
2023/04/30 05:18:38;;;;;;;3.85;3.60;;;;;;;;;;4986645;28;20051;-84
2023/04/30 05:21:06;;;;;;;4.60;3.53;;;;;;;;;;4982661;28;20053;-84
2023/04/30 05:23:33;;;;;;;3.88;3.15;;;;;;;;;;4982854;28;20039;-84
2023/04/30 05:26:01;;;;;;;3.95;3.65;;;;;;;;;;4983250;28;20117;-84
2023/04/30 05:28:28;;;;;;;3.85;3.55;;;;;;;;;;4979487;28;20042;-84
2023/04/30 05:30:55;;;;;;;3.97;3.67;;;;;;;;;;4984435;28;20753;-84
2023/04/30 05:33:23;;;;;;;4.10;3.70;;;;;;;;;;4985789;28;20051;-84
2023/04/30 05:35:50;;;;;;;4.30;3.90;;;;;;;;;;4985892;28;20039;-84
2023/04/30 05:38:17;;;;;;;3.85;3.40;;;;;;;;;;4987385;28;20058;-84
2023/04/30 05:40:45;;;;;;;4.10;3.78;;;;;;;;;;4980394;28;20188;-84
2023/04/30 05:43:13;;;;;;;3.95;3.65;;;;;;;;;;4984824;28;20819;-84
2023/04/30 05:45:40;;;;;;;4.18;3.70;;;;;;;;;;4984581;28;20042;-84
2023/04/30 05:48:07;;;;;;;3.83;3.53;;;;;;;;;;4982820;28;20058;-83
2023/04/30 05:50:35;;;;;;;4.53;4.10;;;;;;;;;;4981651;28;20058;-84
2023/04/30 05:53:02;;;;;;;3.90;3.70;;;;;;;;;;4983781;28;20064;-84
2023/04/30 05:55:30;;;;;;;3.85;3.63;;;;;;;;;;4984477;28;20109;-84
2023/04/30 05:57:57;;;;;;;4.88;3.90;;;;;;;;;;4984337;28;20443;-84
2023/04/30 06:00:24;;;;;;;6.28;4.70;;;;;;;;;;4980993;28;20129;-84
2023/04/30 06:02:52;;;;;;;5.85;3.88;;;;;;;;;;4976002;28;20484;-84
2023/04/30 06:05:19;;;;;;;4.30;4.00;;;;;;;;;;4978273;28;22091;-84
2023/04/30 06:07:47;;;;;;;4.05;3.70;;;;;;;;;;4981498;28;20452;-84
2023/04/30 06:10:14;;;;;;;4.95;4.25;;;;;;;;;;4982570;28;20073;-85
2023/04/30 06:12:41;;;;;;;4.28;3.88;;;;;;;;;;4984870;28;20078;-84
2023/04/30 06:15:09;;;;;;;4.45;3.75;;;;;;;;;;4980320;28;21980;-84
2023/04/30 06:17:36;;;;;;;5.18;4.10;;;;;;;;;;4982354;28;20057;-84
2023/04/30 06:20:05;;;;;;;3.83;3.55;;;;;;;;;;4975118;28;20074;-84
2023/04/30 06:22:33;;;;;;;4.03;3.72;;;;;;;;;;4983554;28;20038;-85
2023/04/30 06:25:00;;;;;;;4.18;3.67;;;;;;;;;;4989622;28;20460;-84
2023/04/30 06:27:28;;;;;;;3.95;3.65;;;;;;;;;;4981794;28;20129;-84
2023/04/30 06:29:55;;;;;;;4.20;3.70;;;;;;;;;;4984654;28;20046;-84
2023/04/30 06:32:23;;;;;;;4.10;3.70;;;;;;;;;;4980040;28;20046;-83
2023/04/30 06:34:50;;;;;;;4.53;4.13;;;;;;;;;;4978707;28;20049;-84
2023/04/30 06:37:18;;;;;;;5.00;4.07;;;;;;;;;;4983068;28;20058;-84
2023/04/30 06:39:45;;;;;;;5.18;3.55;;;;;;;;;;4981704;28;20050;-84
2023/04/30 06:42:12;;;;;;;6.82;3.60;;;;;;;;;;4981349;28;20053;-84
2023/04/30 06:44:40;;;;;;;4.57;4.25;;;;;;;;;;4980984;28;20121;-84
2023/04/30 06:47:07;;;;;;;4.10;3.67;;;;;;;;;;4981164;28;20708;-84
2023/04/30 06:49:35;;;;;;;4.00;3.70;;;;;;;;;;4984223;28;20054;-84
2023/04/30 06:52:03;;;;;;;3.63;3.42;;;;;;;;;;4987987;28;20105;-84
2023/04/30 06:54:30;;;;;;;3.95;3.72;;;;;;;;;;4975615;28;20476;-85
2023/04/30 06:56:57;;;;;;;5.40;3.67;;;;;;;;;;4978836;28;21757;-84
2023/04/30 06:59:25;;;;;;;4.95;3.42;;;;;;;;;;4984446;28;20116;-83
2023/04/30 07:01:52;;;;;;;3.40;3.20;;;;;;;;;;4980824;28;20050;-84
2023/04/30 07:04:20;;;;;;;4.50;3.30;;;;;;;;;;4987944;28;20054;-84
2023/04/30 07:06:47;;;;;;;3.40;3.20;;;;;;;;;;4982958;28;20043;-84
2023/04/30 07:09:15;;;;;;;3.60;3.30;;;;;;;;;;4984803;28;20055;-84
2023/04/30 07:11:44;;;;;;;3.35;3.03;;;;;;;;;;4991126;28;20058;-84
2023/04/30 07:14:11;;;;;;;3.58;3.30;;;;;;;;;;4979548;28;20125;-84
2023/04/30 07:16:38;;;;;;;3.35;3.15;;;;;;;;;;4988320;28;20120;-84
2023/04/30 07:19:05;;;;;;;3.90;3.60;;;;;;;;;;4982241;28;20050;-84
2023/04/30 07:21:33;;;;;;;4.07;3.78;;;;;;;;;;4982023;28;20042;-84
2023/04/30 07:24:00;;;;;;;4.07;3.78;;;;;;;;;;4978027;28;20034;-84
2023/04/30 07:26:28;;;;;;;3.53;3.22;;;;;;;;;;4980377;28;20132;-85
2023/04/30 07:28:55;;;;;;;4.72;4.22;;;;;;;;;;4979609;28;20797;-84
2023/04/30 07:31:23;;;;;;;3.83;3.58;;;;;;;;;;4980799;28;20069;-84
2023/04/30 07:33:50;;;;;;;3.67;3.38;;;;;;;;;;4973579;28;20484;-84
2023/04/30 07:36:17;;;;;;;3.88;3.55;;;;;;;;;;4982185;28;20459;-83
2023/04/30 07:38:45;;;;;;;9.38;4.10;;;;;;;;;;4978551;28;20061;-85
2023/04/30 07:41:12;;;;;;;5.57;3.88;;;;;;;;;;4985163;28;20053;-85
2023/04/30 07:43:40;;;;;;;4.50;4.20;;;;;;;;;;4985087;28;20046;-85
2023/04/30 07:46:07;;;;;;;5.80;4.30;;;;;;;;;;4974864;28;20397;-85
2023/04/30 07:48:34;;;;;;;3.55;3.25;;;;;;;;;;4982222;28;20098;-85
2023/04/30 07:51:03;;;;;;;5.55;3.80;;;;;;;;;;4982674;28;20046;-84
2023/04/30 07:53:30;;;;;;;3.97;3.58;;;;;;;;;;4981129;28;20050;-84
2023/04/30 07:55:58;;;;;;;4.10;3.80;;;;;;;;;;4982503;28;20046;-85
2023/04/30 07:58:25;;;;;;;4.65;4.10;;;;;;;;;;4982260;28;20050;-84
2023/04/30 08:00:53;;;;;;;4.60;4.20;;;;;;;;;;4987483;28;20195;-85
2023/04/30 08:03:20;;;;;;;4.15;3.75;;;;;;;;;;4987000;28;20150;-83
2023/04/30 08:05:47;;;;;;;4.22;3.83;;;;;;;;;;4990807;28;20054;-84
2023/04/30 08:08:15;;;;;;;4.22;3.75;;;;;;;;;;4991353;28;20061;-85
2023/04/30 08:10:42;;;;;;;5.30;4.25;;;;;;;;;;4993067;28;20054;-84
2023/04/30 08:13:09;;;;;;;3.97;3.78;;;;;;;;;;4991738;28;20120;-85
2023/04/30 08:15:38;;;;;;;4.85;4.10;;;;;;;;;;4999658;28;20054;-85
2023/04/30 08:18:06;;;;;;;4.32;3.72;;;;;;;;;;4989493;28;20058;-84
2023/04/30 08:20:33;;;;;;;5.55;3.70;;;;;;;;;;4986677;28;20509;-85
2023/04/30 08:23:04;;;;;;;4.03;3.80;;;;;;;;;;4986143;28;20559;-83
2023/04/30 08:25:32;;;;;;;4.38;3.90;;;;;;;;;;4984481;28;20515;-85
2023/04/30 08:27:59;;;;;;;5.65;3.60;;;;;;;;;;4986052;28;20111;-85
2023/04/30 08:30:26;;;;;;;3.90;3.60;;;;;;;;;;4987679;28;20050;-85
2023/04/30 08:32:54;;;;;;;4.22;3.92;;;;;;;;;;4988574;28;20054;-85
2023/04/30 08:35:24;;;;;;;4.78;3.88;;;;;;;;;;4987370;28;20129;-84
2023/04/30 08:37:52;;;;;;;5.88;4.50;;;;;;;;;;4991086;28;20762;-85
2023/04/30 08:40:19;;;;;;;4.65;3.90;;;;;;;;;;4990938;28;20057;-84
2023/04/30 08:42:57;;;;;;;3.63;3.33;;;;;;;;;;4992670;28;20070;-84
2023/04/30 08:45:24;;;;;;;4.15;3.85;;;;;;;;;;4987581;28;20046;-85
2023/04/30 08:47:52;;;;;;;4.00;3.80;;;;;;;;;;4989415;28;20034;-84
2023/04/30 08:50:19;;;;;;;4.22;3.85;;;;;;;;;;4988153;28;20112;-84
2023/04/30 08:52:46;;;;;;;4.00;3.67;;;;;;;;;;4992585;28;20057;-85
2023/04/30 08:55:14;;;;;;;3.83;3.40;;;;;;;;;;4992754;28;20050;-83
2023/04/30 08:57:41;;;;;;;5.18;3.80;;;;;;;;;;4990129;28;20056;-84
2023/04/30 09:00:09;;;;;;;3.28;3.05;;;;;;;;;;4981004;28;20046;-82
2023/04/30 09:02:39;;;;;;;3.90;3.50;;;;;;;;;;4990586;28;20057;-83
2023/04/30 09:05:11;;;;;;;33.35;18.00;;;;;;;;;;4999172;28;20591;-83
2023/04/30 09:07:38;;;;;;;;;;;;;;;;;;4986845;28;20041;-84
2023/04/30 09:10:15;;;;;;;4.55;4.07;;;;;;;;;;4994207;28;19922;-84
2023/04/30 09:12:44;;;;;;;5.68;4.13;;;;;;;;;;5003414;28;20521;-83
2023/04/30 09:15:12;;;;;;;4.53;3.60;;;;;;;;;;4981143;28;20050;-83
2023/04/30 09:17:41;;;;;;;4.63;3.47;;;;;;;;;;4986000;28;20065;-85
2023/04/30 09:20:12;;;;;;;4.22;3.42;;;;;;;;;;4989327;28;20061;-83
2023/04/30 09:22:40;;;;;;;3.77;3.40;;;;;;;;;;4988147;28;20046;-84
2023/04/30 09:25:09;;;;;;;6.43;4.18;;;;;;;;;;4982429;28;20046;-84
2023/04/30 09:27:36;;;;;;;4.68;4.25;;;;;;;;;;4982782;28;20042;-84
2023/04/30 09:30:04;;;;;;;3.58;3.38;;;;;;;;;;4991127;28;20046;-84
2023/04/30 09:32:31;;;;;;;3.78;3.40;;;;;;;;;;4990749;28;20057;-84
2023/04/30 09:34:59;;;;;;;3.67;3.38;;;;;;;;;;4985514;28;20534;-85
2023/04/30 09:37:36;;;;;;;3.95;3.22;;;;;;;;;;4982844;28;20110;-85
2023/04/30 09:40:03;;;;;;;4.05;3.60;;;;;;;;;;4979762;28;20043;-84
2023/04/30 09:42:31;;;;;;;3.53;3.25;;;;;;;;;;4981461;28;20049;-84
2023/04/30 09:45:17;;;;;;;3.95;3.65;;;;;;;;;;4985768;28;20058;-84
2023/04/30 09:47:44;;;;;;;4.28;3.70;;;;;;;;;;4983227;28;20110;-84
2023/04/30 09:50:13;;;;;;;4.75;3.90;;;;;;;;;;4982003;28;20077;-85
2023/04/30 09:52:40;;;;;;;4.35;3.90;;;;;;;;;;4983134;28;20751;-84
2023/04/30 09:55:08;;;;;;;5.53;3.90;;;;;;;;;;4976727;28;20047;-85
2023/04/30 09:57:36;;;;;;;4.30;3.42;;;;;;;;;;4979781;28;20074;-84
2023/04/30 10:00:03;;;;;;;4.45;3.53;;;;;;;;;;4981250;28;20061;-84
2023/04/30 10:02:36;;;;;;;4.32;3.78;;;;;;;;;;4976664;28;20047;-85
2023/04/30 10:05:03;;;;;;;4.43;3.65;;;;;;;;;;4982345;28;20047;-84
2023/04/30 10:07:34;;;;;;;4.35;3.60;;;;;;;;;;4980740;28;20051;-85
2023/04/30 10:10:09;;;;;;;4.85;3.50;;;;;;;;;;4982163;28;20043;-83
2023/04/30 10:12:47;;;;;;;4.63;4.13;;;;;;;;;;4980416;28;20043;-85
2023/04/30 10:15:23;;;;;;;3.50;3.20;;;;;;;;;;4980065;28;20054;-84
2023/04/30 10:17:57;;;;;;;3.95;3.55;;;;;;;;;;4980789;28;20540;-84
2023/04/30 10:20:28;;;;;;;4.20;3.42;;;;;;;;;;4988562;28;20046;-85
2023/04/30 10:23:07;;;;;;;4.07;3.50;;;;;;;;;;4987000;28;20051;-85
2023/04/30 10:25:35;;;;;;;3.67;3.38;;;;;;;;;;4986758;28;20038;-84
2023/04/30 10:28:02;;;;;;;3.38;3.13;;;;;;;;;;4990031;28;20045;-85
2023/04/30 10:30:31;;;;;;;3.50;3.20;;;;;;;;;;4982797;28;20085;-84
2023/04/30 10:32:59;;;;;;;3.58;3.28;;;;;;;;;;4986707;28;20058;-85
2023/04/30 10:35:28;;;;;;;4.47;3.30;;;;;;;;;;4992465;28;20062;-85
2023/04/30 10:38:07;;;;;;;4.45;3.20;;;;;;;;;;4992583;28;20845;-84
2023/04/30 10:40:37;;;;;;;3.42;3.00;;;;;;;;;;4996306;28;20046;-84
2023/04/30 10:43:04;;;;;;;3.65;3.35;;;;;;;;;;4993443;28;20050;-85
2023/04/30 10:45:36;;;;;;;4.47;3.40;;;;;;;;;;5011757;28;20058;-85
2023/04/30 10:48:04;;;;;;;3.50;3.17;;;;;;;;;;4999212;28;20050;-86
2023/04/30 10:50:32;;;;;;;4.47;3.40;;;;;;;;;;5010710;28;20064;-85
2023/04/30 10:53:03;;;;;;;2.88;2.63;;;;;;;;;;5000601;28;20526;-84
2023/04/30 10:55:31;;;;;;;5.80;3.58;;;;;;;;;;5010557;28;20105;-85
2023/04/30 10:57:58;;;;;;;4.03;3.60;;;;;;;;;;5011242;28;20045;-85
2023/04/30 11:00:27;;;;;;;3.10;2.90;;;;;;;;;;4991804;28;20046;-85
2023/04/30 11:02:59;;;;;;;3.97;3.50;;;;;;;;;;5005540;28;20081;-85
2023/04/30 11:05:34;;;;;;;3.42;2.95;;;;;;;;;;4995408;28;20050;-85
2023/04/30 11:08:01;;;;;;;4.10;3.30;;;;;;;;;;5002709;28;20046;-85
2023/04/30 11:10:31;;;;;;;3.33;3.13;;;;;;;;;;5006551;28;20046;-85
2023/04/30 11:13:02;;;;;;;3.28;2.97;;;;;;;;;;5000566;28;20054;-85
2023/04/30 11:15:40;;;;;;;5.63;2.93;;;;;;;;;;4992189;28;20053;-85
2023/04/30 11:18:08;;;;;;;3.90;3.50;;;;;;;;;;4994959;28;20050;-85
2023/04/30 11:20:43;;;;;;;3.15;2.95;;;;;;;;;;5010935;28;20050;-84
2023/04/30 11:23:14;;;;;;;3.88;3.10;;;;;;;;;;4993277;28;20602;-85
2023/04/30 11:25:53;;;;;;;3.17;2.87;;;;;;;;;;4984781;28;20527;-86
2023/04/30 11:28:25;;;;;;;3.05;2.85;;;;;;;;;;4999982;28;20045;-86
2023/04/30 11:30:52;;;;;;;3.25;2.85;;;;;;;;;;4994925;28;20050;-85
2023/04/30 11:33:20;;;;;;;2.80;2.60;;;;;;;;;;4988711;28;20133;-85
2023/04/30 11:35:51;;;;;;;3.20;2.85;;;;;;;;;;4985632;28;20054;-86
2023/04/30 11:38:22;;;;;;;2.90;2.70;;;;;;;;;;4995122;28;20460;-85
2023/04/30 11:40:50;;;;;;;3.10;2.90;;;;;;;;;;4999948;28;20178;-85
2023/04/30 11:43:22;;;;;;;3.08;2.88;;;;;;;;;;4989355;28;20535;-85
2023/04/30 11:45:59;;;;;;;3.05;2.80;;;;;;;;;;4993124;28;20411;-85
2023/04/30 11:48:36;;;;;;;5.00;3.08;;;;;;;;;;4989035;28;20043;-84
2023/04/30 11:51:05;;;;;;;2.88;2.67;;;;;;;;;;4978094;28;20509;-85
2023/04/30 11:53:32;;;;;;;3.53;3.08;;;;;;;;;;4989999;28;20057;-85
2023/04/30 11:56:03;;;;;;;3.47;2.90;;;;;;;;;;4990238;28;20073;-85
2023/04/30 11:58:36;;;;;;;4.40;2.78;;;;;;;;;;5005949;28;20050;-84
2023/04/30 12:01:05;;;;;;;3.20;2.75;;;;;;;;;;5019210;28;20508;-85
2023/04/30 12:03:32;;;;;;;5.63;2.80;;;;;;;;;;5020730;28;20065;-85
2023/04/30 12:06:01;;;;;;;3.10;2.88;;;;;;;;;;5011039;28;20042;-84
2023/04/30 12:08:28;;;;;;;6.47;4.03;;;;;;;;;;5011172;28;20450;-84
2023/04/30 12:10:57;;;;;;;103.60;12.15;;;;;;;;;;5012322;28;20054;-85
2023/04/30 12:13:24;;;;;;;2.90;2.70;;;;;;;;;;5008446;28;20104;-85
2023/04/30 12:15:58;;;;;;;3.53;2.70;;;;;;;;;;5007370;28;20526;-84
2023/04/30 12:18:26;;;;;;;2.53;2.33;;;;;;;;;;4992576;28;20060;-83
2023/04/30 12:20:53;;;;;;;4.85;2.25;;;;;;;;;;4991624;28;20065;-85
2023/04/30 12:23:21;;;;;;;2.50;2.20;;;;;;;;;;5009678;28;20412;-86
2023/04/30 12:25:48;;;;;;;2.80;2.15;;;;;;;;;;5008048;28;20061;-85
2023/04/30 12:28:16;;;;;;;2.35;2.13;;;;;;;;;;5009799;28;20049;-84
2023/04/30 12:30:43;;;;;;;3.50;2.00;;;;;;;;;;5008326;28;20065;-85
2023/04/30 12:33:11;;;;;;;4.22;2.00;;;;;;;;;;5010898;28;20050;-85
2023/04/30 12:35:41;;;;;;;3.22;1.90;;;;;;;;;;5009431;28;20072;-84
2023/04/30 12:38:09;;;;;;;2.17;1.90;;;;;;;;;;5003141;28;20050;-85
2023/04/30 12:40:36;;;;;;;3.72;2.15;;;;;;;;;;5008996;28;20061;-85
2023/04/30 12:43:06;;;;;;;2.20;2.10;;;;;;;;;;5009015;28;20054;-84
2023/04/30 12:45:53;;;;;;;2.53;1.60;;;;;;;;;;5009904;28;20336;-85
2023/04/30 12:48:21;;;;;;;2.28;2.08;;;;;;;;;;5023881;28;20050;-84
2023/04/30 12:50:53;;;;;;;2.03;1.92;;;;;;;;;;5029868;28;20045;-86
2023/04/30 12:53:20;;;;;;;2.10;1.90;;;;;;;;;;5023442;28;20042;-85
2023/04/30 12:56:08;;;;;;;1.95;1.80;;;;;;;;;;5007721;28;20046;-85
2023/04/30 12:58:35;;;;;;;4.10;1.73;;;;;;;;;;4995920;28;20722;-85
2023/04/30 13:01:06;;;;;;;1.95;1.80;;;;;;;;;;5006740;28;20069;-85
2023/04/30 13:03:33;;;;;;;1.90;1.65;;;;;;;;;;5008343;28;20423;-85
2023/04/30 13:06:02;;;;;;;1.60;1.50;;;;;;;;;;5007556;28;20066;-85
2023/04/30 13:08:29;;;;;;;2.10;2.00;;;;;;;;;;5008509;28;20046;-85
2023/04/30 13:11:02;;;;;;;3.25;1.70;;;;;;;;;;5008415;28;20088;-85
2023/04/30 13:13:30;;;;;;;1.55;1.45;;;;;;;;;;5008766;28;20042;-85
2023/04/30 13:15:58;;;;;;;3.13;1.52;;;;;;;;;;5009050;28;20060;-85
2023/04/30 13:18:25;;;;;;;1.73;1.45;;;;;;;;;;4991301;28;20144;-85
2023/04/30 13:20:52;;;;;;;3.03;1.50;;;;;;;;;;5008522;28;20519;-84
2023/04/30 13:23:20;;;;;;;1.80;1.70;;;;;;;;;;4990070;28;20100;-85
2023/04/30 13:25:47;;;;;;;2.05;1.90;;;;;;;;;;5008865;28;20049;-85
2023/04/30 13:28:15;;;;;;;3.30;1.60;;;;;;;;;;5008333;28;20112;-84
2023/04/30 13:30:42;;;;;;;1.30;1.20;;;;;;;;;;5008009;28;20053;-84
2023/04/30 13:33:10;;;;;;;2.63;2.10;;;;;;;;;;4997680;28;20046;-85
2023/04/30 13:35:38;;;;;;;3.15;1.70;;;;;;;;;;5003508;28;20050;-85
2023/04/30 13:38:05;;;;;;;1.83;1.70;;;;;;;;;;4994411;28;20102;-85
2023/04/30 13:40:33;;;;;;;1.88;1.50;;;;;;;;;;5013473;28;20050;-85
2023/04/30 13:43:00;;;;;;;2.10;1.90;;;;;;;;;;5016775;28;20049;-85
2023/04/30 13:45:28;;;;;;;2.65;1.60;;;;;;;;;;5019490;28;20084;-85
2023/04/30 13:47:56;;;;;;;1.80;1.70;;;;;;;;;;5004778;28;20124;-85
2023/04/30 13:50:25;;;;;;;2.17;1.58;;;;;;;;;;5010287;28;20468;-85
2023/04/30 13:52:52;;;;;;;1.50;1.40;;;;;;;;;;5010049;28;20061;-85
2023/04/30 13:55:19;;;;;;;1.65;1.40;;;;;;;;;;5008423;28;20060;-84
2023/04/30 13:57:47;;;;;;;2.88;1.48;;;;;;;;;;4989009;28;20057;-85
2023/04/30 14:00:26;;;;;;;3.15;1.50;;;;;;;;;;4980324;28;20054;-84
2023/04/30 14:02:54;;;;;;;1.60;1.50;;;;;;;;;;4990119;28;20045;-85
2023/04/30 14:05:22;;;;;;;4.75;1.65;;;;;;;;;;4994858;28;20206;-85
2023/04/30 14:07:49;;;;;;;2.03;1.90;;;;;;;;;;5006940;28;20048;-84
2023/04/30 14:10:17;;;;;;;1.73;1.63;;;;;;;;;;5010670;28;20076;-84
2023/04/30 14:12:44;;;;;;;1.70;1.58;;;;;;;;;;4992994;28;20440;-84
2023/04/30 14:15:11;;;;;;;1.90;1.80;;;;;;;;;;5010209;28;20054;-84
2023/04/30 14:17:38;;;;;;;1.95;1.70;;;;;;;;;;5012952;28;20157;-85
2023/04/30 14:20:07;;;;;;;2.15;1.60;;;;;;;;;;4993166;28;20125;-83
2023/04/30 14:22:37;;;;;;;1.55;1.45;;;;;;;;;;4991424;28;20045;-85
2023/04/30 14:25:05;;;;;;;2.03;1.60;;;;;;;;;;5008762;28;20070;-85
2023/04/30 14:27:32;;;;;;;1.95;1.75;;;;;;;;;;5012198;28;20100;-85
2023/04/30 14:29:59;;;;;;;1.70;1.60;;;;;;;;;;5011058;28;20058;-84
2023/04/30 14:32:27;;;;;;;2.03;1.65;;;;;;;;;;5007114;28;20082;-85
2023/04/30 14:34:54;;;;;;;2.28;1.75;;;;;;;;;;5007013;28;20076;-84
2023/04/30 14:37:21;;;;;;;4.03;1.75;;;;;;;;;;4995083;28;20046;-85
2023/04/30 14:39:49;;;;;;;2.28;1.50;;;;;;;;;;5011074;28;20082;-84
2023/04/30 14:42:17;;;;;;;1.70;1.60;;;;;;;;;;5010845;28;20048;-83
2023/04/30 14:44:44;;;;;;;1.88;1.75;;;;;;;;;;5011986;28;20065;-85
2023/04/30 14:47:37;;;;;;;2.92;2.17;;;;;;;;;;5065023;23;20108;-84
2023/04/30 14:50:43;;;;;;;2.05;1.95;;;;;;;;;;5022685;28;20042;-85
2023/04/30 14:53:39;;;;;;;1.77;1.67;;;;;;;;;;4995585;28;20061;-84